createdAt,value
2019-03-18T00:00:55.620Z,9.54
2019-03-18T00:03:24.500Z,9.54
2019-03-18T00:05:53.528Z,9.53
2019-03-18T00:08:22.429Z,9.53
2019-03-18T00:10:51.456Z,9.52
2019-03-18T00:13:20.461Z,9.53
2019-03-18T00:15:49.595Z,9.51
2019-03-18T00:18:18.592Z,9.49
2019-03-18T00:20:47.620Z,9.49
2019-03-18T00:23:16.632Z,9.48
2019-03-18T00:25:45.751Z,9.48
2019-03-18T00:28:14.608Z,9.47
2019-03-18T00:31:02.680Z,9.45
2019-03-18T00:33:31.687Z,9.45
2019-03-18T00:36:00.705Z,9.43
2019-03-18T00:38:29.711Z,9.44
2019-03-18T00:40:58.744Z,9.42
2019-03-18T00:43:27.688Z,9.40
2019-03-18T00:45:56.704Z,9.40
2019-03-18T00:48:25.699Z,9.39
2019-03-18T00:51:15.216Z,9.40
2019-03-18T00:53:44.088Z,9.41
2019-03-18T00:56:13.009Z,9.39
2019-03-18T00:58:41.878Z,9.39
2019-03-18T01:01:10.766Z,9.38
2019-03-18T01:03:39.864Z,9.39
2019-03-18T01:06:08.826Z,9.39
2019-03-18T01:08:37.942Z,9.37
2019-03-18T01:11:07.106Z,9.36
2019-03-18T01:13:36.441Z,9.35
2019-03-18T01:16:05.444Z,9.35
2019-03-18T01:18:34.494Z,9.34
2019-03-18T01:21:03.547Z,9.33
2019-03-18T01:23:51.407Z,9.34
2019-03-18T01:26:20.294Z,9.36
2019-03-18T01:28:49.521Z,9.35
2019-03-18T01:31:18.528Z,9.35
2019-03-18T01:33:47.605Z,9.33
2019-03-18T01:36:16.612Z,9.33
2019-03-18T01:38:45.543Z,9.32
2019-03-18T01:41:14.593Z,9.33
2019-03-18T01:44:02.604Z,9.32
2019-03-18T01:46:31.515Z,9.31
2019-03-18T01:49:00.392Z,9.30
2019-03-18T01:51:29.322Z,9.28
2019-03-18T01:53:58.403Z,9.28
2019-03-18T01:56:27.417Z,9.27
2019-03-18T01:58:56.346Z,9.28
2019-03-18T02:01:25.354Z,9.27
2019-03-18T02:03:54.372Z,9.26
2019-03-18T02:06:23.245Z,9.26
2019-03-18T02:08:52.186Z,9.26
2019-03-18T02:11:21.158Z,9.27
2019-03-18T02:13:50.153Z,9.26
2019-03-18T02:16:19.181Z,9.24
2019-03-18T02:18:48.283Z,9.25
2019-03-18T02:21:17.352Z,9.26
2019-03-18T02:23:46.431Z,9.23
2019-03-18T02:26:15.289Z,9.23
2019-03-18T02:28:47.197Z,9.25
2019-03-18T02:31:14.903Z,9.25
2019-03-18T02:33:43.755Z,9.22
2019-03-18T02:36:12.557Z,9.21
2019-03-18T02:38:41.453Z,9.22
2019-03-18T02:41:10.417Z,9.22
2019-03-18T02:43:39.389Z,9.21
2019-03-18T02:46:10.534Z,9.18
2019-03-18T02:48:38.916Z,9.17
2019-03-18T02:51:08.328Z,9.18
2019-03-18T02:53:38.368Z,9.18
2019-03-18T02:56:07.660Z,9.17
2019-03-18T02:58:36.963Z,9.17
2019-03-18T03:01:06.070Z,9.17
2019-03-18T03:03:37.010Z,9.17
2019-03-18T03:06:05.993Z,9.16
2019-03-18T03:08:35.913Z,9.16
2019-03-18T03:11:05.050Z,9.16
2019-03-18T03:13:33.937Z,9.14
2019-03-18T03:16:02.749Z,9.15
2019-03-18T03:18:31.858Z,9.14
2019-03-18T03:21:01.081Z,9.13
2019-03-18T03:23:30.059Z,9.12
2019-03-18T03:25:59.096Z,9.10
2019-03-18T03:28:28.009Z,9.11
2019-03-18T03:30:56.819Z,9.12
2019-03-18T03:33:25.850Z,9.11
2019-03-18T03:35:54.931Z,9.12
2019-03-18T03:38:43.085Z,9.11
2019-03-18T03:41:11.880Z,9.10
2019-03-18T03:43:40.905Z,9.10
2019-03-18T03:46:09.908Z,9.10
2019-03-18T03:48:38.805Z,9.08
2019-03-18T03:51:07.646Z,9.08
2019-03-18T03:53:36.500Z,9.06
2019-03-18T03:56:05.827Z,9.06
2019-03-18T03:58:34.694Z,9.06
2019-03-18T04:01:03.702Z,9.07
2019-03-18T04:03:38.748Z,9.07
2019-03-18T04:06:03.297Z,9.06
2019-03-18T04:08:32.450Z,9.05
2019-03-18T04:11:01.423Z,9.05
2019-03-18T04:13:30.363Z,9.03
2019-03-18T04:15:59.341Z,9.03
2019-03-18T04:18:28.372Z,9.03
2019-03-18T04:20:57.375Z,9.03
2019-03-18T04:23:26.389Z,9.04
2019-03-18T04:25:55.428Z,9.01
2019-03-18T04:28:24.492Z,9.02
2019-03-18T04:30:53.330Z,9.00
2019-03-18T04:33:22.245Z,8.99
2019-03-18T04:35:51.220Z,8.99
2019-03-18T04:38:20.158Z,8.99
2019-03-18T04:40:49.174Z,8.99
2019-03-18T04:43:18.147Z,8.97
2019-03-18T04:45:47.068Z,8.98
2019-03-18T04:48:15.926Z,8.96
2019-03-18T04:50:44.772Z,8.96
2019-03-18T04:53:13.789Z,8.96
2019-03-18T04:55:42.612Z,8.95
2019-03-18T04:58:11.573Z,8.96
2019-03-18T05:00:40.580Z,8.95
2019-03-18T05:03:09.576Z,8.96
2019-03-18T05:05:38.552Z,8.96
2019-03-18T05:08:07.439Z,8.97
2019-03-18T05:10:36.711Z,8.95
2019-03-18T05:13:05.675Z,8.93
2019-03-18T05:15:34.661Z,8.93
2019-03-18T05:18:03.694Z,8.92
2019-03-18T05:20:32.609Z,8.93
2019-03-18T05:23:01.402Z,8.92
2019-03-18T05:25:30.280Z,8.94
2019-03-18T05:27:59.140Z,8.94
2019-03-18T05:30:28.119Z,8.95
2019-03-18T05:32:56.988Z,8.96
2019-03-18T05:35:25.825Z,8.97
2019-03-18T05:37:54.843Z,8.98
2019-03-18T05:40:23.665Z,9.00
2019-03-18T05:42:52.590Z,9.02
2019-03-18T05:45:21.690Z,9.04
2019-03-18T05:47:50.602Z,9.04
2019-03-18T05:50:19.540Z,9.05
2019-03-18T05:52:48.646Z,9.07
2019-03-18T05:55:17.874Z,9.07
2019-03-18T05:57:46.879Z,9.08
2019-03-18T06:00:15.912Z,9.12
2019-03-18T06:02:47.058Z,9.17
2019-03-18T06:05:15.916Z,9.38
2019-03-18T06:07:45.381Z,9.76
2019-03-18T06:10:15.096Z,10.31
2019-03-18T06:12:44.220Z,10.81
2019-03-18T06:15:13.039Z,11.23
2019-03-18T06:17:51.569Z,11.65
